Time;durP1;ratioP1;P1;durP2;ratioP2;P2;SDS_P1;SDS_P2;PMS_P1;PMS_P2;Temp;Humidity;BMP_temperature;BMP_pressure;BME280_temperature;BME280_humidity;BME280_pressure;Samples;Min_cycle;Max_cycle;Signal;HPM_P1;HPM_P2
2023/04/26 00:01:20;;;;;;;10.60;8.37;;;9.80;99.90;;;;;;5078943;28;20305;-62
2023/04/26 00:03:48;;;;;;;14.40;9.53;;;9.60;99.90;;;;;;5079223;28;20232;-62
2023/04/26 00:06:15;;;;;;;12.53;8.97;;;9.50;99.90;;;;;;5077932;28;20233;-62
2023/04/26 00:08:42;;;;;;;13.83;9.57;;;9.40;99.90;;;;;;5079248;28;20247;-62
2023/04/26 00:11:09;;;;;;;11.83;9.03;;;9.30;99.90;;;;;;5080478;28;20205;-62
2023/04/26 00:13:37;;;;;;;14.80;9.30;;;9.30;99.90;;;;;;5079769;28;20224;-62
2023/04/26 00:16:05;;;;;;;13.20;9.40;;;9.30;99.90;;;;;;5080277;28;20578;-62
2023/04/26 00:18:31;;;;;;;13.83;9.03;;;9.30;99.90;;;;;;5079776;28;20212;-62
2023/04/26 00:20:58;;;;;;;12.73;9.50;;;9.30;99.90;;;;;;5078493;28;20215;-62
2023/04/26 00:23:25;;;;;;;13.63;9.70;;;9.30;99.90;;;;;;5079138;28;20215;-62
2023/04/26 00:25:52;;;;;;;12.63;9.20;;;9.30;99.90;;;;;;5078895;28;20228;-62
2023/04/26 00:28:19;;;;;;;11.83;9.83;;;9.40;99.90;;;;;;5077602;28;20212;-63
2023/04/26 00:30:47;;;;;;;12.70;9.57;;;9.40;99.90;;;;;;5078103;28;20216;-62
2023/04/26 00:33:14;;;;;;;12.87;9.50;;;9.40;99.90;;;;;;5077844;28;20201;-62
2023/04/26 00:35:41;;;;;;;12.23;9.17;;;9.40;99.90;;;;;;5077023;28;20592;-62
2023/04/26 00:38:08;;;;;;;12.77;9.23;;;9.40;99.90;;;;;;5077044;28;20207;-63
2023/04/26 00:40:35;;;;;;;10.80;8.37;;;9.40;99.90;;;;;;5077762;28;20219;-62
2023/04/26 00:43:03;;;;;;;10.33;8.27;;;9.30;99.90;;;;;;5077550;28;20215;-62
2023/04/26 00:45:31;;;;;;;10.50;7.93;;;9.30;99.90;;;;;;5077721;28;20307;-62
2023/04/26 00:48:00;;;;;;;11.73;7.83;;;9.20;99.90;;;;;;5076950;28;20672;-62
2023/04/26 00:50:27;;;;;;;10.53;7.33;;;9.10;99.90;;;;;;5077459;28;20576;-62
2023/04/26 00:52:55;;;;;;;11.63;7.60;;;9.10;99.90;;;;;;5076768;28;20752;-62
2023/04/26 00:55:23;;;;;;;10.67;7.67;;;9.00;99.90;;;;;;5077142;28;20687;-62
2023/04/26 00:57:50;;;;;;;10.07;7.37;;;8.90;99.90;;;;;;5076731;28;20596;-61
2023/04/26 01:00:17;;;;;;;8.97;7.80;;;8.80;99.90;;;;;;5077208;28;20216;-61
2023/04/26 01:02:44;;;;;;;13.43;8.37;;;8.70;99.90;;;;;;5076947;28;20209;-61
2023/04/26 01:05:12;;;;;;;13.07;8.97;;;8.60;99.90;;;;;;5075693;28;20716;-61
2023/04/26 01:07:40;;;;;;;14.27;8.83;;;8.50;99.90;;;;;;5075957;28;20603;-61
2023/04/26 01:10:08;;;;;;;11.53;8.50;;;8.40;99.90;;;;;;5076030;28;20208;-62
2023/04/26 01:12:35;;;;;;;13.70;8.43;;;8.30;99.90;;;;;;5076362;28;20212;-62
2023/04/26 01:15:03;;;;;;;12.50;9.03;;;8.30;99.90;;;;;;5076630;28;20205;-62
2023/04/26 01:17:30;;;;;;;14.63;9.00;;;8.20;99.90;;;;;;5077230;28;20286;-61
2023/04/26 01:19:57;;;;;;;10.80;8.43;;;8.10;99.90;;;;;;5077653;28;20205;-62
2023/04/26 01:22:27;;;;;;;13.07;8.70;;;8.10;99.90;;;;;;5076819;28;20227;-62
2023/04/26 01:24:56;;;;;;;11.53;8.10;;;8.00;99.90;;;;;;5077150;28;20225;-61
2023/04/26 01:27:23;;;;;;;14.43;9.33;;;7.90;99.90;;;;;;5076836;28;20256;-62
2023/04/26 01:29:50;;;;;;;12.67;8.63;;;7.90;99.90;;;;;;5077119;28;20297;-62
2023/04/26 01:32:17;;;;;;;13.67;8.40;;;7.80;99.90;;;;;;5076177;28;20209;-62
2023/04/26 01:34:44;;;;;;;12.77;8.30;;;7.80;99.90;;;;;;5076024;28;20292;-62
2023/04/26 01:37:11;;;;;;;11.37;8.77;;;7.70;99.90;;;;;;5076230;28;20237;-62
2023/04/26 01:39:38;;;;;;;12.63;8.53;;;7.70;99.90;;;;;;5076597;28;20228;-62
2023/04/26 01:42:06;;;;;;;10.13;7.53;;;7.70;99.90;;;;;;5076039;28;20671;-61
2023/04/26 01:44:33;;;;;;;11.87;7.77;;;7.60;99.90;;;;;;5074634;28;20232;-62
2023/04/26 01:47:00;;;;;;;11.83;7.93;;;7.70;99.90;;;;;;5075307;28;20264;-62
2023/04/26 01:49:27;;;;;;;9.63;7.87;;;7.60;99.90;;;;;;5077208;28;20625;-62
2023/04/26 01:51:54;;;;;;;9.33;7.50;;;7.70;99.90;;;;;;5076934;28;20672;-62
2023/04/26 01:54:21;;;;;;;8.93;7.40;;;7.70;99.90;;;;;;5077817;28;20204;-62
2023/04/26 01:56:48;;;;;;;12.30;8.10;;;7.70;99.90;;;;;;5076860;28;20256;-62
2023/04/26 01:59:16;;;;;;;11.97;7.73;;;7.70;99.90;;;;;;5076173;28;20258;-62
2023/04/26 02:01:43;;;;;;;10.87;8.07;;;7.80;99.90;;;;;;5075309;28;20645;-62
2023/04/26 02:04:10;;;;;;;11.27;8.07;;;7.90;99.90;;;;;;5075820;28;20212;-63
2023/04/26 02:06:37;;;;;;;11.23;8.03;;;7.90;99.90;;;;;;5075326;28;20225;-62
2023/04/26 02:09:04;;;;;;;11.73;7.70;;;7.90;99.90;;;;;;5075756;28;20204;-63
2023/04/26 02:11:31;;;;;;;12.23;7.57;;;7.90;99.90;;;;;;5075687;28;20272;-62
2023/04/26 02:13:58;;;;;;;10.67;7.50;;;8.00;99.90;;;;;;5075425;28;20669;-63
2023/04/26 02:16:27;;;;;;;10.77;8.17;;;8.00;99.90;;;;;;5075754;28;20262;-62
2023/04/26 02:18:54;;;;;;;13.10;8.07;;;8.00;99.90;;;;;;5075471;28;20208;-62
2023/04/26 02:21:21;;;;;;;11.53;7.87;;;8.10;99.90;;;;;;5076925;28;20205;-62
2023/04/26 02:23:48;;;;;;;11.27;7.63;;;8.20;99.90;;;;;;5076374;28;20200;-62
2023/04/26 02:26:15;;;;;;;10.00;7.60;;;8.20;99.90;;;;;;5075786;28;20225;-62
2023/04/26 02:28:42;;;;;;;8.90;7.47;;;8.20;99.90;;;;;;5076158;28;20559;-63
2023/04/26 02:31:09;;;;;;;11.23;7.90;;;8.30;99.90;;;;;;5075667;28;20279;-62
2023/04/26 02:33:38;;;;;;;11.73;8.00;;;8.30;99.90;;;;;;5076260;28;20209;-62
2023/04/26 02:36:05;;;;;;;12.27;7.87;;;8.30;99.90;;;;;;5075641;28;20256;-62
2023/04/26 02:38:34;;;;;;;16.00;8.17;;;8.30;99.90;;;;;;5075798;28;20212;-62
2023/04/26 02:41:02;;;;;;;12.57;7.37;;;8.40;99.90;;;;;;5075776;28;20219;-62
2023/04/26 02:43:29;;;;;;;9.97;7.60;;;8.30;99.90;;;;;;5075659;28;20295;-62
2023/04/26 02:45:57;;;;;;;13.00;7.30;;;8.30;99.90;;;;;;5076182;28;20288;-62
2023/04/26 02:48:24;;;;;;;12.73;8.87;;;8.20;99.90;;;;;;5075528;28;20586;-62
2023/04/26 02:50:52;;;;;;;15.70;8.10;;;8.10;99.90;;;;;;5075781;28;20240;-62
2023/04/26 02:53:19;;;;;;;10.90;6.93;;;8.10;99.90;;;;;;5075647;28;20646;-63
2023/04/26 02:55:46;;;;;;;10.73;7.07;;;8.10;99.90;;;;;;5074857;28;20640;-62
2023/04/26 02:58:13;;;;;;;11.93;8.50;;;8.10;99.90;;;;;;5075459;28;20205;-62
2023/04/26 03:00:46;;;;;;;18.87;8.40;;;8.10;99.90;;;;;;5075135;28;20205;-63
2023/04/26 03:03:12;;;;;;;11.07;8.23;;;8.00;99.90;;;;;;5075402;28;20204;-62
2023/04/26 03:05:40;;;;;;;9.93;7.40;;;7.90;99.90;;;;;;5074677;28;20229;-63
2023/04/26 03:08:08;;;;;;;10.03;7.67;;;7.80;99.90;;;;;;5074630;28;20205;-62
2023/04/26 03:10:35;;;;;;;9.67;7.53;;;7.60;99.90;;;;;;5075477;28;20220;-62
2023/04/26 03:13:03;;;;;;;12.07;8.23;;;7.40;99.90;;;;;;5075803;28;20622;-62
2023/04/26 03:15:30;;;;;;;9.17;7.20;;;7.30;99.90;;;;;;5075583;28;20197;-62
2023/04/26 03:17:57;;;;;;;10.97;7.73;;;7.20;99.90;;;;;;5075960;28;20204;-62
2023/04/26 03:20:24;;;;;;;9.77;7.60;;;7.10;99.90;;;;;;5076510;28;20281;-62
2023/04/26 03:22:51;;;;;;;15.10;9.03;;;7.10;99.90;;;;;;5076816;28;20295;-62
2023/04/26 03:25:19;;;;;;;13.20;8.37;;;7.10;99.90;;;;;;5075852;28;20228;-62
2023/04/26 03:27:46;;;;;;;13.07;8.50;;;7.00;99.90;;;;;;5075749;28;20584;-63
2023/04/26 03:30:13;;;;;;;13.67;8.53;;;7.00;99.90;;;;;;5075532;28;20329;-62
2023/04/26 03:32:40;;;;;;;12.50;8.47;;;7.00;99.90;;;;;;5075303;28;20201;-63
2023/04/26 03:35:09;;;;;;;12.13;8.07;;;6.90;99.90;;;;;;5075743;28;20615;-63
2023/04/26 03:37:38;;;;;;;16.40;10.57;;;6.80;99.90;;;;;;5074825;28;20298;-62
2023/04/26 03:40:07;;;;;;;12.37;8.10;;;6.80;99.90;;;;;;5075671;28;20622;-62
2023/04/26 03:42:36;;;;;;;17.03;9.03;;;6.80;99.90;;;;;;5077807;28;20237;-62
2023/04/26 03:45:03;;;;;;;9.73;7.73;;;6.70;99.90;;;;;;5079069;28;20228;-61
2023/04/26 03:47:30;;;;;;;13.03;9.70;;;6.60;99.90;;;;;;5079935;28;20236;-62
2023/04/26 03:49:57;;;;;;;14.90;8.80;;;6.50;99.90;;;;;;5080118;28;20205;-61
2023/04/26 03:52:24;;;;;;;12.17;8.90;;;6.50;99.90;;;;;;5080303;28;20241;-62
2023/04/26 03:54:51;;;;;;;12.93;9.43;;;6.40;99.90;;;;;;5080164;28;20216;-61
2023/04/26 03:57:18;;;;;;;14.73;9.70;;;6.40;99.90;;;;;;5081079;28;20229;-62
2023/04/26 03:59:46;;;;;;;10.50;8.63;;;6.30;99.90;;;;;;5080318;28;20232;-62
2023/04/26 04:02:13;;;;;;;12.07;8.70;;;6.30;99.90;;;;;;5080754;28;20273;-61
2023/04/26 04:04:40;;;;;;;12.80;9.03;;;6.20;99.90;;;;;;5081320;28;20292;-61
2023/04/26 04:07:07;;;;;;;10.47;7.77;;;6.20;99.90;;;;;;5080633;28;20315;-61
2023/04/26 04:09:34;;;;;;;10.70;8.30;;;6.10;99.90;;;;;;5080417;28;20637;-62
2023/04/26 04:12:01;;;;;;;11.93;8.97;;;6.10;99.90;;;;;;5079658;28;20236;-62
2023/04/26 04:14:28;;;;;;;16.13;8.43;;;6.00;99.90;;;;;;5078423;28;20209;-62
2023/04/26 04:16:58;;;;;;;10.13;8.40;;;6.10;99.90;;;;;;5077561;28;20221;-62
2023/04/26 04:19:25;;;;;;;14.57;10.27;;;6.00;99.90;;;;;;5077516;28;20707;-61
2023/04/26 04:21:52;;;;;;;17.57;9.57;;;6.10;99.90;;;;;;5077476;28;20208;-61
2023/04/26 04:24:20;;;;;;;14.93;9.40;;;6.10;99.90;;;;;;5077146;28;20699;-61
2023/04/26 04:26:47;;;;;;;14.50;8.87;;;6.10;99.90;;;;;;5077040;28;20301;-60
2023/04/26 04:29:14;;;;;;;14.23;9.27;;;6.10;99.90;;;;;;5076762;28;20295;-60
2023/04/26 04:31:41;;;;;;;13.70;8.63;;;6.10;99.90;;;;;;5077252;28;20197;-60
2023/04/26 04:34:09;;;;;;;9.83;8.00;;;6.00;99.90;;;;;;5077304;28;20213;-60
2023/04/26 04:36:37;;;;;;;11.10;8.00;;;5.90;99.90;;;;;;5076245;28;20260;-60
2023/04/26 04:39:04;;;;;;;11.70;7.70;;;5.90;99.90;;;;;;5076511;28;20209;-60
2023/04/26 04:41:33;;;;;;;11.80;7.60;;;5.90;99.90;;;;;;5076677;28;20262;-60
2023/04/26 04:44:00;;;;;;;10.13;7.53;;;5.90;99.90;;;;;;5076989;28;20213;-60
2023/04/26 04:46:27;;;;;;;10.40;7.67;;;5.80;99.90;;;;;;5076809;28;20237;-60
2023/04/26 04:48:54;;;;;;;11.40;7.13;;;5.90;99.90;;;;;;5077632;28;20239;-61
2023/04/26 04:51:22;;;;;;;10.43;7.17;;;5.90;99.90;;;;;;5078129;28;20213;-60
2023/04/26 04:53:50;;;;;;;10.17;7.00;;;6.00;99.90;;;;;;5077840;28;20232;-60
2023/04/26 04:56:18;;;;;;;9.30;7.90;;;6.00;99.90;;;;;;5078006;28;20229;-60
2023/04/26 04:58:45;;;;;;;9.70;7.10;;;6.10;99.90;;;;;;5077708;28;20217;-60
2023/04/26 05:01:12;;;;;;;9.57;7.27;;;6.20;99.90;;;;;;5077765;28;20209;-60
2023/04/26 05:03:39;;;;;;;9.57;7.63;;;6.30;99.90;;;;;;5077614;28;20661;-60
2023/04/26 05:06:06;;;;;;;10.53;7.50;;;6.40;99.90;;;;;;5076618;28;20315;-60
2023/04/26 05:08:35;;;;;;;9.20;6.90;;;6.60;99.90;;;;;;5077499;28;20299;-61
2023/04/26 05:11:02;;;;;;;11.73;7.97;;;6.70;99.90;;;;;;5078720;28;20270;-60
2023/04/26 05:13:29;;;;;;;7.87;7.03;;;6.90;99.90;;;;;;5077222;28;20205;-62
2023/04/26 05:15:56;;;;;;;9.33;7.27;;;7.10;99.90;;;;;;5076103;28;20705;-61
2023/04/26 05:18:23;;;;;;;10.57;6.53;;;7.30;99.90;;;;;;5075977;28;20231;-60
2023/04/26 05:20:50;;;;;;;8.33;6.70;;;7.50;99.90;;;;;;5076124;28;20201;-60
2023/04/26 05:23:17;;;;;;;10.70;6.93;;;7.60;99.90;;;;;;5076482;28;20213;-61
2023/04/26 05:25:45;;;;;;;10.53;6.67;;;7.70;99.90;;;;;;5075980;28;20228;-61
2023/04/26 05:28:13;;;;;;;10.43;7.00;;;7.80;99.90;;;;;;5076307;28;20597;-61
2023/04/26 05:30:40;;;;;;;9.03;6.90;;;7.90;99.90;;;;;;5075666;28;20272;-61
2023/04/26 05:33:06;;;;;;;9.43;6.70;;;8.00;99.90;;;;;;5075331;28;20424;-61
2023/04/26 05:35:33;;;;;;;11.67;7.30;;;8.20;99.90;;;;;;5074823;28;20204;-61
2023/04/26 05:38:00;;;;;;;10.67;7.50;;;8.40;99.90;;;;;;5074797;28;20569;-62
2023/04/26 05:40:27;;;;;;;13.17;7.00;;;8.70;99.90;;;;;;5075915;28;20215;-61
2023/04/26 05:42:55;;;;;;;10.93;6.47;;;9.50;99.90;;;;;;5075371;28;20208;-61
2023/04/26 05:45:22;;;;;;;9.03;6.57;;;10.90;99.90;;;;;;5075093;28;20208;-62
2023/04/26 05:47:50;;;;;;;10.60;7.47;;;12.70;99.90;;;;;;5075526;28;20229;-62
2023/04/26 05:50:17;;;;;;;11.27;6.67;;;14.50;99.90;;;;;;5076536;28;20215;-62
2023/04/26 05:52:44;;;;;;;8.13;5.37;;;16.10;99.90;;;;;;5077030;28;20208;-62
2023/04/26 05:55:12;;;;;;;8.17;5.50;;;16.90;99.90;;;;;;5076504;28;20665;-62
2023/04/26 05:57:39;;;;;;;9.73;5.57;;;17.10;99.90;;;;;;5076240;28;20236;-63
2023/04/26 06:00:10;;;;;;;7.07;4.88;;;18.00;99.90;;;;;;5076536;28;20239;-62
2023/04/26 06:02:37;;;;;;;7.82;5.50;;;19.00;99.80;;;;;;5075847;28;20209;-64
2023/04/26 06:05:05;;;;;;;7.30;5.32;;;19.90;98.00;;;;;;5075368;28;20205;-63
2023/04/26 06:07:32;;;;;;;6.57;5.53;;;20.80;96.10;;;;;;5074569;28;20278;-63
2023/04/26 06:10:01;;;;;;;7.50;5.90;;;21.60;94.00;;;;;;5075414;28;20205;-63
2023/04/26 06:12:28;;;;;;;8.85;5.43;;;22.40;91.90;;;;;;5075606;28;20255;-63
2023/04/26 06:14:55;;;;;;;8.73;6.18;;;22.70;89.80;;;;;;5075400;28;20205;-63
2023/04/26 06:17:24;;;;;;;9.00;6.18;;;22.90;88.80;;;;;;5074632;28;20232;-63
2023/04/26 06:19:51;;;;;;;7.13;5.75;;;23.20;88.60;;;;;;5074545;28;20660;-63
2023/04/26 06:22:17;;;;;;;10.32;6.30;;;23.50;85.20;;;;;;5075412;28;20413;-63
2023/04/26 06:24:44;;;;;;;9.20;5.93;;;23.90;83.60;;;;;;5075258;28;20216;-63
2023/04/26 06:27:11;;;;;;;8.73;6.50;;;24.60;80.70;;;;;;5074608;28;20237;-63
2023/04/26 06:29:38;;;;;;;9.38;6.50;;;25.00;77.70;;;;;;5075245;28;20204;-63
2023/04/26 06:32:06;;;;;;;10.35;6.05;;;25.40;76.70;;;;;;5075979;28;20196;-63
2023/04/26 06:34:34;;;;;;;8.88;6.00;;;25.80;72.60;;;;;;5075339;28;20552;-64
2023/04/26 06:37:01;;;;;;;8.48;6.15;;;26.00;71.40;;;;;;5075375;28;20233;-63
2023/04/26 06:39:28;;;;;;;11.80;5.95;;;26.20;70.90;;;;;;5075582;28;20205;-64
2023/04/26 06:41:55;;;;;;;8.98;5.68;;;26.80;66.00;;;;;;5075692;28;20233;-63
2023/04/26 06:44:22;;;;;;;6.72;5.75;;;26.20;65.30;;;;;;5075656;28;20262;-63
2023/04/26 06:46:49;;;;;;;12.15;5.45;;;24.60;67.90;;;;;;5075050;28;20224;-63
2023/04/26 06:49:16;;;;;;;11.20;5.88;;;23.60;71.10;;;;;;5074697;28;20665;-63
2023/04/26 06:51:44;;;;;;;7.43;5.68;;;24.40;69.80;;;;;;5075385;28;20580;-64
2023/04/26 06:54:12;;;;;;;9.60;5.00;;;25.60;66.30;;;;;;5075717;28;20742;-63
2023/04/26 06:56:39;;;;;;;8.32;4.82;;;26.10;62.20;;;;;;5075316;28;20270;-63
2023/04/26 06:59:07;;;;;;;8.32;4.97;;;25.80;63.20;;;;;;5074706;28;20200;-63
2023/04/26 07:01:35;;;;;;;5.80;4.35;;;26.00;63.40;;;;;;5074261;28;20588;-65
2023/04/26 07:04:03;;;;;;;8.20;4.45;;;26.60;60.00;;;;;;5073764;28;20683;-63
2023/04/26 07:06:31;;;;;;;9.57;3.92;;;27.60;58.80;;;;;;5072731;28;20229;-63
2023/04/26 07:09:01;;;;;;;5.63;3.55;;;28.90;55.80;;;;;;5072995;28;20216;-63
2023/04/26 07:11:28;;;;;;;6.55;4.32;;;29.10;53.10;;;;;;5072495;28;20223;-63
2023/04/26 07:13:55;;;;;;;7.50;4.22;;;29.00;52.60;;;;;;5072831;28;20265;-63
2023/04/26 07:16:22;;;;;;;4.60;3.53;;;27.80;54.00;;;;;;5074557;28;20307;-63
2023/04/26 07:18:50;;;;;;;5.72;3.22;;;26.00;55.00;;;;;;5076302;28;20208;-63
2023/04/26 07:21:17;;;;;;;7.15;4.05;;;24.60;57.60;;;;;;5076524;28;20618;-65
2023/04/26 07:23:43;;;;;;;6.88;3.88;;;25.80;57.60;;;;;;5090352;28;20559;-63
2023/04/26 07:26:12;;;;;;;8.73;4.25;;;27.60;54.90;;;;;;5098703;28;20227;-63
2023/04/26 07:28:39;;;;;;;4.90;3.40;;;26.90;53.70;;;;;;5107442;28;20206;-62
2023/04/26 07:31:06;;;;;;;4.35;2.85;;;26.90;54.90;;;;;;5116190;28;20235;-62
2023/04/26 07:33:33;;;;;;;7.50;3.50;;;27.40;52.50;;;;;;5116278;28;20199;-64
2023/04/26 07:36:00;;;;;;;5.95;3.92;;;28.10;51.70;;;;;;5131183;22;20607;-69
2023/04/26 07:38:27;;;;;;;6.38;3.28;;;28.80;49.80;;;;;;5092517;28;20342;-68
2023/04/26 07:40:55;;;;;;;6.25;3.33;;;28.40;50.90;;;;;;5094719;28;20204;-68
2023/04/26 07:43:23;;;;;;;4.80;3.38;;;29.10;50.20;;;;;;5094483;28;20212;-65
2023/04/26 07:45:50;;;;;;;6.55;3.42;;;29.80;48.60;;;;;;5093991;28;20829;-63
2023/04/26 07:48:17;;;;;;;7.13;3.97;;;30.50;46.70;;;;;;5073802;28;20238;-64
2023/04/26 07:50:43;;;;;;;5.00;3.10;;;31.10;46.10;;;;;;5074250;28;20208;-63
2023/04/26 07:53:10;;;;;;;6.60;3.08;;;31.20;44.00;;;;;;5073505;28;20608;-63
2023/04/26 07:55:37;;;;;;;4.97;2.90;;;30.90;42.90;;;;;;5073332;28;20387;-63
2023/04/26 07:58:04;;;;;;;4.68;3.13;;;30.00;43.90;;;;;;5073122;28;20224;-65
2023/04/26 08:00:37;;;;;;;5.47;2.65;;;29.00;44.60;;;;;;5073248;28;20209;-66
2023/04/26 08:03:03;;;;;;;5.28;3.10;;;28.60;44.10;;;;;;5073456;28;20270;-67
2023/04/26 08:05:30;;;;;;;4.75;2.35;;;27.20;46.10;;;;;;5073149;28;20209;-66
2023/04/26 08:07:57;;;;;;;6.82;2.33;;;26.00;46.20;;;;;;5072940;28;20274;-66
2023/04/26 08:10:24;;;;;;;5.07;2.50;;;25.50;44.60;;;;;;5073326;28;20671;-66
2023/04/26 08:12:50;;;;;;;4.88;2.63;;;23.80;46.10;;;;;;5073505;28;20205;-67
2023/04/26 08:15:17;;;;;;;8.85;2.92;;;22.80;48.60;;;;;;5072508;28;20205;-67
2023/04/26 08:17:46;;;;;;;10.43;7.18;;;21.60;50.70;;;;;;5072894;28;20303;-67
2023/04/26 08:20:13;;;;;;;5.00;2.70;;;20.40;52.80;;;;;;5073882;28;20212;-66
2023/04/26 08:22:39;;;;;;;5.90;3.13;;;20.40;53.10;;;;;;5073665;28;20205;-66
2023/04/26 08:25:06;;;;;;;7.72;3.38;;;20.80;53.10;;;;;;5073366;28;20209;-66
2023/04/26 08:27:34;;;;;;;6.25;3.50;;;20.40;54.10;;;;;;5073097;28;20229;-67
2023/04/26 08:30:01;;;;;;;7.68;3.22;;;19.90;54.70;;;;;;5073858;28;20210;-65
2023/04/26 08:32:28;;;;;;;4.53;2.90;;;19.50;55.30;;;;;;5073907;28;20303;-66
2023/04/26 08:34:56;;;;;;;7.20;3.40;;;19.10;55.70;;;;;;5073572;28;20682;-64
2023/04/26 08:37:23;;;;;;;6.88;3.55;;;18.80;57.00;;;;;;5073465;28;20228;-65
2023/04/26 08:39:49;;;;;;;7.50;3.63;;;18.50;58.00;;;;;;5073726;28;20262;-67
2023/04/26 08:42:17;;;;;;;7.35;3.55;;;18.10;59.20;;;;;;5073686;28;20282;-65
2023/04/26 08:44:45;;;;;;;8.05;3.15;;;17.90;59.70;;;;;;5073704;28;20216;-66
2023/04/26 08:47:16;;;;;;;5.95;3.10;;;17.80;59.70;;;;;;5073046;28;20716;-66
2023/04/26 08:49:46;;;;;;;5.78;3.33;;;17.90;60.10;;;;;;5073573;28;20232;-65
2023/04/26 08:52:15;;;;;;;9.60;3.67;;;17.80;61.20;;;;;;5073523;28;20220;-65
2023/04/26 08:54:42;;;;;;;6.32;3.88;;;17.20;62.20;;;;;;5073513;28;20269;-65
2023/04/26 08:57:09;;;;;;;6.28;3.40;;;17.00;63.40;;;;;;5073194;28;20584;-65
2023/04/26 08:59:37;;;;;;;6.97;3.25;;;17.40;63.80;;;;;;5073343;28;20657;-66
2023/04/26 09:02:06;;;;;;;9.07;3.58;;;17.30;62.10;;;;;;5073375;28;20209;-66
2023/04/26 09:04:33;;;;;;;8.27;3.17;;;17.40;60.90;;;;;;5073362;28;20312;-65
2023/04/26 09:07:01;;;;;;;6.40;3.30;;;17.40;59.50;;;;;;5072939;28;20294;-65
2023/04/26 09:09:33;;;;;;;7.82;3.65;;;17.40;58.80;;;;;;5073150;28;20213;-65
2023/04/26 09:12:02;;;;;;;7.32;3.53;;;17.60;58.30;;;;;;5073010;28;20665;-69
2023/04/26 09:14:29;;;;;;;5.55;3.08;;;17.90;57.80;;;;;;5072964;28;20706;-65
2023/04/26 09:16:56;;;;;;;6.45;3.13;;;17.80;58.50;;;;;;5072812;28;20220;-65
2023/04/26 09:19:36;;;;;;;6.53;3.05;;;17.50;59.30;;;;;;5073366;28;20205;-66
2023/04/26 09:22:03;;;;;;;7.15;3.50;;;17.50;59.70;;;;;;5073173;28;20231;-67
2023/04/26 09:24:46;;;;;;;10.82;4.05;;;17.50;59.10;;;;;;5073049;28;20228;-66
2023/04/26 09:27:14;;;;;;;5.53;2.80;;;17.40;59.80;;;;;;5072821;28;20392;-65
2023/04/26 09:29:41;;;;;;;6.20;3.17;;;17.30;60.70;;;;;;5072738;28;20254;-66
2023/04/26 09:32:08;;;;;;;8.48;3.05;;;17.30;60.70;;;;;;5072699;28;20692;-65
2023/04/26 09:34:46;;;;;;;6.32;3.30;;;17.50;60.40;;;;;;5072907;28;20215;-65
2023/04/26 09:37:13;;;;;;;5.95;3.15;;;17.60;60.60;;;;;;5072168;28;20319;-67
2023/04/26 09:39:42;;;;;;;7.57;3.42;;;17.80;60.50;;;;;;5072691;28;20300;-66
2023/04/26 09:42:10;;;;;;;4.72;3.30;;;17.70;61.10;;;;;;5072525;28;20208;-65
2023/04/26 09:44:37;;;;;;;7.40;3.10;;;17.60;61.50;;;;;;5072649;28;20254;-64
2023/04/26 09:47:05;;;;;;;5.47;2.97;;;17.70;62.10;;;;;;5072192;28;20232;-65
2023/04/26 09:49:33;;;;;;;8.93;3.35;;;17.70;61.70;;;;;;5072329;28;20208;-64
2023/04/26 09:52:05;;;;;;;5.28;2.90;;;17.80;61.30;;;;;;5072521;28;20295;-64
2023/04/26 09:54:43;;;;;;;5.72;3.30;;;17.50;62.20;;;;;;5072389;28;20209;-66
2023/04/26 09:57:10;;;;;;;10.35;3.13;;;17.60;62.20;;;;;;5071927;28;20225;-66
2023/04/26 09:59:48;;;;;;;9.85;2.97;;;17.90;62.20;;;;;;5072238;28;20216;-65
2023/04/26 10:02:20;;;;;;;7.20;3.00;;;18.40;61.20;;;;;;5071969;28;20201;-65
2023/04/26 10:04:49;;;;;;;5.93;2.47;;;18.50;59.50;;;;;;5072429;28;20296;-65
2023/04/26 10:07:18;;;;;;;7.03;2.45;;;18.60;59.10;;;;;;5071349;28;20251;-67
2023/04/26 10:09:46;;;;;;;4.70;2.67;;;18.90;58.30;;;;;;5071850;28;20204;-67
2023/04/26 10:12:15;;;;;;;6.38;2.65;;;19.20;57.70;;;;;;5071888;28;20212;-65
2023/04/26 10:14:43;;;;;;;6.68;2.72;;;19.00;57.70;;;;;;5071900;28;20209;-65
2023/04/26 10:17:10;;;;;;;8.00;2.88;;;18.80;58.40;;;;;;5071706;28;20233;-65
2023/04/26 10:19:42;;;;;;;5.93;2.95;;;18.50;58.30;;;;;;5072295;28;20213;-65
2023/04/26 10:22:11;;;;;;;5.63;2.90;;;18.60;58.40;;;;;;5071952;28;20209;-66
2023/04/26 10:24:38;;;;;;;4.95;2.80;;;18.80;58.60;;;;;;5071961;28;20568;-66
2023/04/26 10:27:06;;;;;;;4.38;2.63;;;18.70;59.10;;;;;;5071446;28;20251;-66
2023/04/26 10:30:12;;;;;;;5.82;2.90;;;18.50;59.70;;;;;;5072525;28;20259;-67
2023/04/26 10:33:16;;;;;;;5.25;2.85;;;18.00;59.90;;;;;;5072517;28;20290;-65
2023/04/26 10:36:06;;;;;;;9.35;2.85;;;17.70;61.20;;;;;;5072092;28;20192;-69
2023/04/26 10:38:33;;;;;;;12.48;8.10;;;17.70;60.50;;;;;;5072119;28;20270;-64
2023/04/26 10:41:34;;;;;;;9.80;5.22;;;17.70;61.30;;;;;;5072273;28;20208;-64
2023/04/26 10:44:39;;;;;;;6.00;3.88;;;18.20;61.20;;;;;;4971174;28;20214;-66
2023/04/26 10:47:07;;;;;;;7.55;3.00;;;18.50;59.50;;;;;;4970966;28;20262;-65
2023/04/26 10:49:45;;;;;;;7.28;2.40;;;18.90;59.20;;;;;;5043273;28;20672;-65
2023/04/26 10:52:14;;;;;;;4.57;2.00;;;19.00;55.90;;;;;;5071619;28;20212;-65
2023/04/26 10:54:56;;;;;;;6.68;2.42;;;18.80;56.80;;;;;;5071942;28;20244;-66
2023/04/26 10:57:24;;;;;;;4.15;2.38;;;18.90;56.70;;;;;;5071806;28;20642;-66
2023/04/26 11:00:28;;;;;;;7.22;2.75;;;19.30;56.40;;;;;;5072223;28;20785;-65
2023/04/26 11:03:08;;;;;;;4.72;2.30;;;19.60;55.30;;;;;;5071921;28;20220;-66
2023/04/26 11:05:50;;;;;;;3.50;2.33;;;19.70;55.80;;;;;;5071772;28;20295;-66
2023/04/26 11:08:19;;;;;;;6.75;2.67;;;19.60;55.70;;;;;;5067855;28;20221;-65
2023/04/26 11:10:50;;;;;;;4.50;2.80;;;19.50;55.70;;;;;;5071525;28;20212;-66
2023/04/26 11:13:18;;;;;;;4.88;2.47;;;19.30;55.70;;;;;;5071302;28;20319;-65
2023/04/26 11:15:45;;;;;;;4.38;2.70;;;18.80;55.90;;;;;;5071369;28;20209;-64
2023/04/26 11:18:13;;;;;;;6.32;2.50;;;18.40;56.90;;;;;;5071404;28;20258;-64
2023/04/26 11:20:39;;;;;;;6.07;2.70;;;18.30;56.90;;;;;;5071530;28;20209;-65
2023/04/26 11:23:08;;;;;;;6.93;2.75;;;18.00;57.40;;;;;;5071439;28;20205;-64
2023/04/26 11:25:35;;;;;;;6.70;2.47;;;17.80;59.10;;;;;;5070859;28;20233;-65
2023/04/26 11:28:03;;;;;;;7.18;2.95;;;17.70;58.10;;;;;;5070857;28;20240;-66
2023/04/26 11:30:30;;;;;;;6.82;3.10;;;17.80;57.90;;;;;;5071237;28;20205;-65
2023/04/26 11:32:58;;;;;;;5.50;2.67;;;18.00;57.30;;;;;;5071265;28;20673;-65
2023/04/26 11:35:28;;;;;;;8.85;2.90;;;18.00;58.10;;;;;;5070811;28;20216;-65
2023/04/26 11:37:58;;;;;;;7.65;3.13;;;17.90;59.20;;;;;;5071126;28;20233;-65
2023/04/26 11:40:28;;;;;;;5.55;2.65;;;18.00;58.20;;;;;;5071038;28;20212;-67
2023/04/26 11:42:54;;;;;;;5.63;3.03;;;18.30;56.50;;;;;;5071201;28;20205;-65
2023/04/26 11:45:21;;;;;;;9.05;2.67;;;18.20;56.80;;;;;;5071073;28;20208;-65
2023/04/26 11:47:48;;;;;;;3.65;2.30;;;18.30;55.40;;;;;;5070913;28;20616;-66
2023/04/26 11:50:15;;;;;;;4.72;2.35;;;18.90;55.30;;;;;;5070835;28;20213;-66
2023/04/26 11:52:43;;;;;;;5.13;2.30;;;19.50;55.00;;;;;;5071014;28;20201;-64
2023/04/26 11:55:11;;;;;;;4.72;2.40;;;19.50;55.20;;;;;;5070873;28;20715;-66
2023/04/26 11:57:38;;;;;;;7.35;3.58;;;19.50;55.80;;;;;;5070277;28;20593;-66
2023/04/26 12:00:11;;;;;;;4.18;2.60;;;19.80;55.60;;;;;;5071362;28;20509;-65
2023/04/26 12:02:38;;;;;;;6.55;2.67;;;20.10;53.80;;;;;;5071945;28;20255;-65
2023/04/26 12:05:06;;;;;;;6.97;3.13;;;20.00;54.40;;;;;;5074423;28;20342;-65
2023/04/26 12:07:36;;;;;;;4.25;2.35;;;19.90;55.10;;;;;;5073955;28;20708;-66
2023/04/26 12:10:16;;;;;;;5.80;2.78;;;20.00;54.30;;;;;;5074384;28;20213;-65
2023/04/26 12:12:48;;;;;;;6.32;2.65;;;20.20;54.10;;;;;;5075004;28;20287;-66
2023/04/26 12:15:15;;;;;;;5.30;2.83;;;20.10;54.10;;;;;;5075270;28;20243;-66
2023/04/26 12:17:55;;;;;;;6.00;2.72;;;19.90;53.60;;;;;;5074016;28;20220;-66
2023/04/26 12:20:33;;;;;;;4.72;2.70;;;19.30;54.30;;;;;;5074161;28;20295;-64
2023/04/26 12:23:07;;;;;;;6.68;3.08;;;18.50;57.00;;;;;;5074493;28;20554;-66
2023/04/26 12:25:38;;;;;;;5.05;2.70;;;18.00;58.20;;;;;;5074316;28;20209;-66
2023/04/26 12:28:11;;;;;;;4.88;2.58;;;17.80;59.00;;;;;;5074925;28;20233;-66
2023/04/26 12:30:39;;;;;;;5.30;3.05;;;17.60;59.00;;;;;;5074601;28;20205;-63
2023/04/26 12:33:06;;;;;;;4.75;2.70;;;17.40;57.40;;;;;;5075064;28;20625;-64
2023/04/26 12:35:34;;;;;;;5.55;2.78;;;16.90;58.00;;;;;;5074147;28;20205;-64
2023/04/26 12:38:01;;;;;;;5.05;2.60;;;16.80;58.00;;;;;;5074231;28;20229;-64
2023/04/26 12:40:28;;;;;;;6.28;2.70;;;16.70;57.60;;;;;;5074001;28;20402;-65
2023/04/26 12:42:57;;;;;;;7.55;3.17;;;16.60;58.50;;;;;;5074307;28;20262;-65
2023/04/26 12:45:25;;;;;;;5.80;3.10;;;16.70;58.80;;;;;;5074352;28;20630;-65
2023/04/26 12:47:53;;;;;;;4.63;2.72;;;16.80;57.80;;;;;;5073750;28;20225;-64
2023/04/26 12:50:20;;;;;;;8.70;2.85;;;16.90;58.30;;;;;;5074099;28;20619;-64
2023/04/26 12:52:47;;;;;;;4.07;2.70;;;17.30;58.50;;;;;;5074251;28;20254;-64
2023/04/26 12:55:15;;;;;;;6.25;2.97;;;17.70;58.10;;;;;;5074953;28;20215;-64